Time;durP1;ratioP1;P1;durP2;ratioP2;P2;SDS_P1;SDS_P2;PMS_P1;PMS_P2;Temp;Humidity;BMP_temperature;BMP_pressure;BME280_temperature;BME280_humidity;BME280_pressure;Samples;Min_cycle;Max_cycle;Signal;HPM_P1;HPM_P2
2021/06/19 00:00:35;;;;;;;26.10;23.60;;;24.00;79.70;;;;;;5053703;28;20594;-86
2021/06/19 00:03:02;;;;;;;24.20;21.65;;;24.00;79.80;;;;;;5053592;28;20192;-85
2021/06/19 00:05:28;;;;;;;26.10;23.60;;;23.90;79.80;;;;;;5035758;28;20176;-86
2021/06/19 00:07:54;;;;;;;27.00;23.27;;;23.90;80.10;;;;;;5053433;28;20180;-85
2021/06/19 00:10:20;;;;;;;27.02;24.38;;;23.90;79.90;;;;;;5053885;28;20155;-86
2021/06/19 00:12:47;;;;;;;25.13;22.63;;;23.90;79.60;;;;;;5053596;28;20204;-86
2021/06/19 00:15:16;;;;;;;23.27;20.90;;;23.70;80.30;;;;;;5053430;28;20190;-86
2021/06/19 00:17:42;;;;;;;26.67;22.38;;;23.50;79.90;;;;;;5053394;28;20687;-86
2021/06/19 00:20:16;;;;;;;30.27;20.33;;;23.60;79.90;;;;;;5053502;28;20172;-86
2021/06/19 00:22:43;;;;;;;28.15;20.75;;;23.60;79.80;;;;;;5035589;28;20194;-86
2021/06/19 00:25:10;;;;;;;20.95;18.85;;;23.60;79.70;;;;;;5053374;28;20180;-86
2021/06/19 00:27:37;;;;;;;22.80;19.05;;;23.60;79.80;;;;;;5034616;28;20168;-86
2021/06/19 00:30:08;;;;;;;24.92;19.67;;;23.60;79.60;;;;;;5035401;28;20176;-86
2021/06/19 00:32:33;;;;;;;23.80;20.25;;;23.60;79.40;;;;;;5053157;28;20634;-86
2021/06/19 00:34:59;;;;;;;21.40;19.20;;;23.60;79.20;;;;;;5053297;28;20168;-86
2021/06/19 00:37:25;;;;;;;23.13;20.75;;;23.50;79.30;;;;;;5035417;28;20176;-86
2021/06/19 00:39:50;;;;;;;23.25;20.38;;;23.50;79.40;;;;;;5035236;28;20202;-85
2021/06/19 00:42:20;;;;;;;23.90;20.77;;;23.50;79.50;;;;;;5053058;28;20320;-86
2021/06/19 00:44:47;;;;;;;24.13;21.63;;;23.40;79.50;;;;;;5035279;28;20172;-86
2021/06/19 00:47:13;;;;;;;23.45;21.33;;;23.30;80.30;;;;;;5035283;28;20643;-86
2021/06/19 00:49:38;;;;;;;22.77;20.42;;;23.30;80.50;;;;;;5035194;28;20196;-86
2021/06/19 00:52:04;;;;;;;26.00;21.92;;;23.20;80.50;;;;;;5053118;28;20176;-86
2021/06/19 00:54:30;;;;;;;24.98;22.58;;;23.20;80.50;;;;;;5053108;28;20172;-86
2021/06/19 00:56:56;;;;;;;23.60;21.05;;;23.20;81.10;;;;;;5052989;28;20176;-86
2021/06/19 00:59:21;;;;;;;23.52;20.90;;;23.10;81.10;;;;;;5053023;28;20222;-86
2021/06/19 01:01:47;;;;;;;23.58;19.73;;;23.10;81.10;;;;;;5052930;28;20195;-86
2021/06/19 01:04:13;;;;;;;24.90;20.58;;;23.00;80.90;;;;;;5035132;28;20522;-87
2021/06/19 01:06:39;;;;;;;23.27;20.50;;;23.00;80.70;;;;;;5052922;28;20179;-86
2021/06/19 01:09:08;;;;;;;22.65;20.33;;;23.00;80.60;;;;;;5034952;28;20713;-86
2021/06/19 01:11:35;;;;;;;23.67;21.02;;;23.00;80.50;;;;;;5035126;28;20233;-86
2021/06/19 01:14:02;;;;;;;24.35;21.88;;;22.90;81.10;;;;;;5035006;28;20178;-86
2021/06/19 01:16:28;;;;;;;30.25;23.08;;;22.70;82.00;;;;;;5034950;28;20168;-86
2021/06/19 01:18:54;;;;;;;27.08;24.27;;;22.70;82.50;;;;;;5034962;28;20676;-86
2021/06/19 01:21:25;;;;;;;27.90;21.90;;;22.60;82.60;;;;;;5034925;28;20168;-86
2021/06/19 01:23:52;;;;;;;24.17;20.80;;;22.50;82.60;;;;;;5034942;28;20173;-86
2021/06/19 01:26:20;;;;;;;25.42;20.02;;;22.50;82.30;;;;;;5052726;28;20191;-86
2021/06/19 01:28:48;;;;;;;23.35;20.95;;;22.50;82.00;;;;;;5034733;28;20195;-86
2021/06/19 01:31:14;;;;;;;24.70;21.35;;;22.50;82.00;;;;;;5052684;28;20234;-86
2021/06/19 01:33:42;;;;;;;24.60;22.15;;;22.40;82.30;;;;;;5034955;28;20176;-86
2021/06/19 01:36:08;;;;;;;22.67;20.42;;;22.40;82.20;;;;;;5052683;28;20176;-86
2021/06/19 01:38:42;;;;;;;25.88;22.77;;;22.40;82.20;;;;;;5054441;28;20191;-86
2021/06/19 01:41:16;;;;;;;25.88;23.38;;;22.40;81.90;;;;;;5056797;28;20172;-85
2021/06/19 01:43:43;;;;;;;30.20;27.05;;;22.30;81.80;;;;;;5056333;28;20203;-86
2021/06/19 01:46:09;;;;;;;34.60;29.05;;;22.10;84.00;;;;;;5038454;28;20172;-86
2021/06/19 01:48:35;;;;;;;34.55;29.15;;;21.90;84.70;;;;;;5056205;28;20610;-86
2021/06/19 01:51:00;;;;;;;31.90;28.60;;;21.80;84.70;;;;;;5056076;28;20164;-86
2021/06/19 01:53:26;;;;;;;31.42;28.15;;;21.80;84.60;;;;;;5038327;28;20188;-86
2021/06/19 01:55:52;;;;;;;33.55;30.00;;;21.80;84.40;;;;;;5056086;28;20171;-86
2021/06/19 01:58:18;;;;;;;31.95;28.63;;;21.80;84.90;;;;;;5055932;28;20231;-86
2021/06/19 02:00:44;;;;;;;31.35;28.27;;;21.70;85.10;;;;;;5038080;28;20176;-86
2021/06/19 02:03:09;;;;;;;36.28;30.00;;;21.70;84.60;;;;;;5038092;28;20203;-86
2021/06/19 02:05:36;;;;;;;36.90;28.17;;;21.60;85.60;;;;;;5056003;28;20562;-86
2021/06/19 02:08:04;;;;;;;36.15;27.85;;;21.50;85.60;;;;;;5055672;28;20243;-86
2021/06/19 02:10:35;;;;;;;34.88;31.17;;;21.50;85.70;;;;;;5127632;22;20250;-90
2021/06/19 02:13:05;;;;;;;35.25;31.75;;;21.30;86.50;;;;;;5038077;28;20176;-89
2021/06/19 02:15:33;;;;;;;34.22;30.67;;;21.20;86.70;;;;;;5055779;28;20173;-90
2021/06/19 02:17:59;;;;;;;34.50;31.00;;;21.20;86.70;;;;;;5037865;28;20263;-90
2021/06/19 02:20:26;;;;;;;32.80;29.38;;;21.20;86.80;;;;;;5037692;28;20287;-90
2021/06/19 02:22:52;;;;;;;32.50;29.10;;;21.20;86.20;;;;;;5037706;28;20257;-90
2021/06/19 02:25:22;;;;;;;31.77;28.88;;;21.40;86.10;;;;;;5055528;28;20659;-90
2021/06/19 02:27:53;;;;;;;33.60;30.17;;;21.40;86.40;;;;;;5055589;28;20168;-90
2021/06/19 02:30:23;;;;;;;30.92;27.67;;;21.40;86.10;;;;;;5037540;28;20199;-90
2021/06/19 02:32:50;;;;;;;30.35;27.65;;;21.50;85.70;;;;;;5055771;28;20179;-88
2021/06/19 02:35:16;;;;;;;30.38;27.52;;;21.60;85.30;;;;;;5055389;28;20702;-88
2021/06/19 02:37:42;;;;;;;30.50;27.17;;;21.60;85.40;;;;;;5037549;28;20180;-88
2021/06/19 02:40:08;;;;;;;32.63;26.77;;;21.60;85.00;;;;;;5055308;28;20265;-88
2021/06/19 02:42:34;;;;;;;32.10;28.75;;;21.50;85.40;;;;;;5037301;28;20676;-88
2021/06/19 02:45:00;;;;;;;32.55;28.75;;;21.50;85.40;;;;;;5055326;28;20178;-88
2021/06/19 02:47:26;;;;;;;36.80;28.30;;;21.50;85.30;;;;;;5037313;28;20173;-88
2021/06/19 02:49:51;;;;;;;37.47;33.50;;;21.50;85.60;;;;;;5036545;28;20568;-88
2021/06/19 02:52:17;;;;;;;35.88;31.90;;;21.50;86.40;;;;;;5037336;28;20651;-88
2021/06/19 02:54:43;;;;;;;35.30;31.63;;;21.50;86.40;;;;;;5055368;28;20215;-87
2021/06/19 02:57:10;;;;;;;33.45;30.25;;;21.50;86.40;;;;;;5037162;28;20176;-88
2021/06/19 02:59:36;;;;;;;32.67;29.25;;;21.50;86.30;;;;;;5037149;28;20196;-88
2021/06/19 03:02:02;;;;;;;32.78;29.13;;;21.50;86.60;;;;;;5037080;28;20200;-87
2021/06/19 03:04:28;;;;;;;31.52;28.48;;;21.50;86.40;;;;;;5037005;28;20179;-88
2021/06/19 03:06:54;;;;;;;35.35;28.70;;;21.40;86.60;;;;;;5037009;28;20215;-88
2021/06/19 03:09:19;;;;;;;30.75;27.35;;;21.40;86.30;;;;;;5054577;28;20602;-88
2021/06/19 03:11:45;;;;;;;29.25;26.10;;;21.40;86.20;;;;;;5054825;28;20164;-88
2021/06/19 03:14:11;;;;;;;27.98;24.90;;;21.40;86.40;;;;;;5037348;28;20537;-88
2021/06/19 03:16:36;;;;;;;31.73;25.88;;;21.40;86.00;;;;;;5036843;28;20190;-88
2021/06/19 03:19:05;;;;;;;28.15;24.38;;;21.40;86.20;;;;;;5054757;28;20664;-88
2021/06/19 03:21:33;;;;;;;30.95;24.55;;;21.40;86.20;;;;;;5054471;28;20233;-88
2021/06/19 03:23:59;;;;;;;27.95;23.63;;;21.50;86.00;;;;;;5037678;28;20172;-88
2021/06/19 03:26:24;;;;;;;26.85;24.13;;;21.50;86.00;;;;;;5036664;28;20176;-88
2021/06/19 03:28:50;;;;;;;26.73;24.02;;;21.50;85.90;;;;;;5036562;28;20520;-88
2021/06/19 03:31:15;;;;;;;31.70;23.80;;;21.60;85.70;;;;;;5036584;28;20172;-88
2021/06/19 03:33:41;;;;;;;26.63;23.70;;;21.60;85.60;;;;;;5036594;28;20725;-88
2021/06/19 03:36:07;;;;;;;27.55;24.52;;;21.70;85.50;;;;;;5036484;28;20179;-88
2021/06/19 03:38:32;;;;;;;32.28;23.08;;;21.70;85.50;;;;;;5036333;28;20550;-88
2021/06/19 03:40:58;;;;;;;31.92;24.67;;;21.70;86.10;;;;;;5036383;28;20269;-88
2021/06/19 03:43:24;;;;;;;34.22;26.45;;;21.50;86.40;;;;;;5054366;28;20219;-88
2021/06/19 03:45:49;;;;;;;35.80;27.52;;;21.40;86.70;;;;;;5054402;28;20258;-88
2021/06/19 03:48:15;;;;;;;34.90;27.35;;;21.40;86.70;;;;;;5036237;28;20176;-88
2021/06/19 03:50:40;;;;;;;26.98;24.20;;;21.40;86.70;;;;;;5054036;28;20281;-88
2021/06/19 03:53:06;;;;;;;28.90;26.10;;;21.50;86.40;;;;;;5036124;28;20269;-88
2021/06/19 03:55:32;;;;;;;33.63;28.70;;;21.50;86.20;;;;;;5053927;28;20168;-88
2021/06/19 03:57:59;;;;;;;30.40;27.27;;;21.40;86.40;;;;;;5053827;28;20524;-88
2021/06/19 04:00:25;;;;;;;33.45;27.73;;;21.30;86.80;;;;;;5036255;28;20196;-88
2021/06/19 04:02:51;;;;;;;33.70;27.77;;;21.20;87.20;;;;;;5036942;28;20210;-88
2021/06/19 04:05:18;;;;;;;33.40;30.05;;;21.10;87.40;;;;;;5053765;28;20168;-87
2021/06/19 04:07:44;;;;;;;30.35;27.08;;;21.10;87.70;;;;;;5036926;28;20184;-88
2021/06/19 04:10:11;;;;;;;31.80;28.15;;;21.00;87.70;;;;;;5035783;28;20580;-88
2021/06/19 04:12:37;;;;;;;34.70;28.00;;;21.00;87.50;;;;;;5035882;28;20180;-88
2021/06/19 04:15:05;;;;;;;32.10;28.30;;;21.00;87.40;;;;;;5035872;28;20189;-88
2021/06/19 04:17:31;;;;;;;28.08;25.15;;;21.10;87.60;;;;;;5035661;28;20229;-88
2021/06/19 04:19:56;;;;;;;29.38;24.38;;;21.20;87.30;;;;;;5053508;28;20290;-88
2021/06/19 04:22:22;;;;;;;27.50;22.90;;;21.20;87.00;;;;;;5053416;28;20281;-88
2021/06/19 04:24:47;;;;;;;26.52;21.55;;;21.30;86.60;;;;;;5035651;28;20179;-88
2021/06/19 04:27:16;;;;;;;30.05;23.52;;;21.40;86.30;;;;;;5053790;28;20186;-88
2021/06/19 04:29:42;;;;;;;29.95;24.75;;;21.40;86.10;;;;;;5035552;28;20192;-88
2021/06/19 04:32:09;;;;;;;27.45;24.85;;;21.40;86.60;;;;;;5035623;28;20669;-88
2021/06/19 04:34:36;;;;;;;31.77;24.52;;;21.30;86.80;;;;;;5053588;28;20202;-88
2021/06/19 04:37:01;;;;;;;27.33;24.20;;;21.40;86.60;;;;;;5035464;28;20551;-90
2021/06/19 04:39:27;;;;;;;32.42;26.73;;;21.50;86.80;;;;;;5053226;28;20274;-90
2021/06/19 04:42:04;;;;;;;29.80;26.20;;;21.50;87.10;;;;;;5035405;28;20203;-90
2021/06/19 04:47:09;;;;;;;33.22;29.83;;;21.70;88.00;;;;;;5053288;28;20152;-90
2021/06/19 04:49:35;;;;;;;34.88;31.33;;;21.80;88.00;;;;;;5053032;28;20272;-90
2021/06/19 04:52:01;;;;;;;32.90;29.38;;;21.90;88.00;;;;;;5035382;28;20179;-90
2021/06/19 04:54:26;;;;;;;38.50;30.00;;;21.90;87.90;;;;;;5035308;28;20180;-90
2021/06/19 04:56:52;;;;;;;34.60;30.75;;;22.00;87.40;;;;;;5035518;28;20176;-90
2021/06/19 04:59:18;;;;;;;36.13;31.65;;;22.20;87.10;;;;;;5052985;28;20192;-90
2021/06/19 05:01:43;;;;;;;36.70;31.83;;;22.20;87.00;;;;;;5053004;28;20191;-90
2021/06/19 05:04:09;;;;;;;34.72;31.35;;;22.30;87.00;;;;;;5035200;28;20221;-90
2021/06/19 05:06:36;;;;;;;35.78;31.98;;;22.40;87.20;;;;;;5053170;28;20179;-90
2021/06/19 05:09:04;;;;;;;34.80;31.55;;;22.50;87.60;;;;;;5035116;28;20207;-90
2021/06/19 05:11:29;;;;;;;34.42;30.88;;;22.50;87.50;;;;;;5053160;28;20180;-90
2021/06/19 05:13:55;;;;;;;34.05;30.52;;;22.70;86.90;;;;;;5037603;28;20215;-90
2021/06/19 05:16:21;;;;;;;33.55;29.88;;;22.80;86.50;;;;;;5039164;28;20195;-90
2021/06/19 05:18:46;;;;;;;34.40;30.15;;;22.90;86.50;;;;;;5038950;28;20172;-90
2021/06/19 05:21:12;;;;;;;38.83;31.33;;;22.90;86.40;;;;;;5039070;28;20180;-90
2021/06/19 05:23:37;;;;;;;33.72;29.83;;;22.90;86.20;;;;;;5056708;28;20199;-88
2021/06/19 05:26:03;;;;;;;36.95;30.30;;;22.90;86.30;;;;;;5056874;28;20207;-88
2021/06/19 05:28:29;;;;;;;33.88;30.35;;;22.80;86.10;;;;;;5056780;28;20163;-88
2021/06/19 05:30:54;;;;;;;37.80;29.70;;;22.90;86.10;;;;;;5038975;28;20224;-88
2021/06/19 05:33:20;;;;;;;38.75;32.00;;;22.90;86.20;;;;;;5038763;28;20542;-88
2021/06/19 05:35:46;;;;;;;35.05;31.35;;;23.00;86.10;;;;;;5038773;28;20557;-88
2021/06/19 05:38:11;;;;;;;39.40;32.92;;;23.10;85.80;;;;;;5056963;28;20182;-88
2021/06/19 05:40:37;;;;;;;35.53;31.70;;;23.10;85.60;;;;;;5038767;28;20203;-88
2021/06/19 05:43:02;;;;;;;38.42;30.90;;;23.20;85.10;;;;;;5038591;28;20235;-88
2021/06/19 05:45:28;;;;;;;34.78;30.60;;;23.40;84.10;;;;;;5056766;28;20168;-88
2021/06/19 05:47:54;;;;;;;32.10;28.80;;;23.50;83.70;;;;;;5038953;28;20588;-88
2021/06/19 05:50:19;;;;;;;32.00;28.77;;;23.60;83.70;;;;;;5056282;28;20188;-88
2021/06/19 05:52:45;;;;;;;31.02;27.20;;;23.70;82.80;;;;;;5038439;28;20271;-88
2021/06/19 05:55:11;;;;;;;29.67;24.85;;;23.70;82.80;;;;;;5038465;28;20194;-88
2021/06/19 05:57:37;;;;;;;34.60;26.38;;;23.70;82.20;;;;;;5038266;28;20226;-88
2021/06/19 06:00:07;;;;;;;28.17;25.23;;;23.80;82.60;;;;;;5038247;28;20206;-88
2021/06/19 06:02:33;;;;;;;27.90;24.15;;;23.90;82.20;;;;;;5038259;28;20575;-88
2021/06/19 06:04:58;;;;;;;27.92;24.85;;;23.90;81.60;;;;;;5056054;28;20164;-89
2021/06/19 06:07:24;;;;;;;35.72;23.50;;;24.00;81.70;;;;;;5055970;28;20183;-88
2021/06/19 06:09:49;;;;;;;26.50;23.70;;;24.20;81.70;;;;;;5037919;28;20261;-88
2021/06/19 06:12:15;;;;;;;25.60;22.13;;;24.30;80.90;;;;;;5038161;28;20172;-88
2021/06/19 06:14:41;;;;;;;29.52;21.88;;;24.30;80.90;;;;;;5038396;28;20644;-88
2021/06/19 06:17:06;;;;;;;24.80;19.85;;;24.30;80.50;;;;;;5055892;28;20635;-88
2021/06/19 06:19:33;;;;;;;24.08;18.23;;;24.40;80.40;;;;;;5056076;28;20232;-88
2021/06/19 06:21:58;;;;;;;28.35;18.23;;;24.60;79.70;;;;;;5037983;28;20195;-88
2021/06/19 06:24:24;;;;;;;20.83;18.58;;;24.60;78.40;;;;;;5036784;28;20542;-88
2021/06/19 06:26:49;;;;;;;27.40;17.98;;;24.70;79.00;;;;;;5055679;28;20216;-88
2021/06/19 06:29:15;;;;;;;18.98;16.77;;;24.70;77.70;;;;;;5038051;28;20195;-88
2021/06/19 06:31:41;;;;;;;23.98;15.00;;;24.80;77.50;;;;;;5055746;28;20164;-88
2021/06/19 06:34:06;;;;;;;17.23;14.65;;;24.90;77.30;;;;;;5037863;28;20179;-88
2021/06/19 06:36:32;;;;;;;26.40;13.48;;;25.00;78.20;;;;;;5038009;28;20172;-88
2021/06/19 06:39:02;;;;;;;18.65;11.05;;;25.00;75.40;;;;;;5038048;28;20585;-89
2021/06/19 06:41:28;;;;;;;17.15;11.18;;;24.90;73.90;;;;;;5055869;28;20202;-88
2021/06/19 06:43:53;;;;;;;12.43;10.55;;;24.80;74.20;;;;;;5038711;28;20290;-88
2021/06/19 06:46:19;;;;;;;18.08;11.43;;;24.80;74.10;;;;;;5055236;28;20168;-88
2021/06/19 06:48:45;;;;;;;19.95;11.20;;;24.80;74.30;;;;;;5037439;28;20187;-88
2021/06/19 06:51:11;;;;;;;15.57;11.25;;;24.90;75.30;;;;;;5038188;28;20177;-88
2021/06/19 06:53:37;;;;;;;21.13;11.43;;;24.90;74.80;;;;;;5056766;28;20663;-89
2021/06/19 06:56:02;;;;;;;21.65;11.02;;;25.00;74.60;;;;;;5037294;28;20183;-88
2021/06/19 06:58:28;;;;;;;17.08;10.77;;;25.00;74.40;;;;;;5038004;28;20226;-88
2021/06/19 07:00:54;;;;;;;16.77;9.00;;;25.10;75.60;;;;;;5037109;28;20254;-88
2021/06/19 07:03:19;;;;;;;11.10;8.05;;;25.20;74.50;;;;;;5037036;28;20200;-88
2021/06/19 07:05:45;;;;;;;15.07;7.60;;;25.10;73.90;;;;;;5037055;28;20168;-88
2021/06/19 07:08:11;;;;;;;11.00;6.53;;;25.20;73.20;;;;;;5037078;28;20259;-87
2021/06/19 07:10:36;;;;;;;12.82;6.50;;;25.20;73.40;;;;;;5036784;28;20641;-87
2021/06/19 07:13:02;;;;;;;10.68;6.05;;;25.10;72.10;;;;;;5037293;28;20176;-88
2021/06/19 07:15:28;;;;;;;6.50;5.63;;;25.20;72.90;;;;;;5036903;28;20244;-87
2021/06/19 07:17:53;;;;;;;5.13;4.63;;;25.20;73.80;;;;;;5054643;28;20183;-87
2021/06/19 07:20:20;;;;;;;8.82;4.85;;;25.20;70.10;;;;;;5036749;28;20192;-87
2021/06/19 07:22:46;;;;;;;6.55;5.53;;;25.20;70.30;;;;;;5054497;28;20199;-87
2021/06/19 07:25:13;;;;;;;10.57;6.05;;;25.20;71.10;;;;;;5036561;28;20671;-87
2021/06/19 07:27:40;;;;;;;8.68;5.82;;;25.20;70.60;;;;;;5036527;28;20172;-87
2021/06/19 07:30:07;;;;;;;11.18;5.65;;;25.40;72.40;;;;;;5036447;28;20285;-87
2021/06/19 07:32:34;;;;;;;9.13;5.32;;;25.50;71.10;;;;;;5054279;28;20176;-87
2021/06/19 07:35:00;;;;;;;8.50;4.50;;;25.60;69.70;;;;;;5036408;28;20636;-87
2021/06/19 07:37:25;;;;;;;9.15;3.83;;;25.60;69.60;;;;;;5036105;28;20180;-87
2021/06/19 07:39:53;;;;;;;3.95;3.20;;;25.70;68.70;;;;;;5036320;28;20199;-87
2021/06/19 07:42:22;;;;;;;6.82;3.10;;;25.80;66.80;;;;;;5054171;28;20200;-87
2021/06/19 07:44:49;;;;;;;5.85;3.35;;;25.80;66.80;;;;;;5054234;28;20175;-87
2021/06/19 07:47:15;;;;;;;11.77;3.15;;;25.90;65.60;;;;;;5036323;28;20176;-87
2021/06/19 07:49:41;;;;;;;4.10;2.88;;;25.90;63.90;;;;;;5036340;28;20245;-87
2021/06/19 07:52:07;;;;;;;8.00;3.15;;;26.00;64.40;;;;;;5054047;28;20692;-87
2021/06/19 07:54:36;;;;;;;5.13;3.22;;;26.10;63.90;;;;;;5054073;28;20241;-87
2021/06/19 07:57:04;;;;;;;7.55;2.33;;;26.20;64.40;;;;;;5054030;28;20168;-87
2021/06/19 07:59:29;;;;;;;3.40;2.50;;;26.20;63.90;;;;;;5053934;28;20306;-87
2021/06/19 08:01:55;;;;;;;5.78;2.55;;;26.20;65.40;;;;;;5035857;28;20225;-87
2021/06/19 08:04:21;;;;;;;4.45;3.00;;;26.40;65.90;;;;;;5053890;28;20175;-87
2021/06/19 08:06:46;;;;;;;4.38;3.17;;;26.50;63.30;;;;;;5036224;28;20616;-87
2021/06/19 08:09:12;;;;;;;3.58;2.42;;;26.50;63.40;;;;;;5035674;28;20208;-87
2021/06/19 08:11:38;;;;;;;3.85;2.40;;;26.40;63.30;;;;;;5059178;23;20219;-84
2021/06/19 08:14:04;;;;;;;4.60;2.53;;;26.40;64.20;;;;;;5053519;28;20258;-85
2021/06/19 08:16:30;;;;;;;5.20;2.55;;;26.60;63.80;;;;;;5053462;28;20175;-85
2021/06/19 08:18:55;;;;;;;4.72;2.65;;;26.70;64.30;;;;;;5053716;28;20168;-85
2021/06/19 08:21:21;;;;;;;8.35;2.85;;;26.50;62.90;;;;;;5053403;28;20199;-85
2021/06/19 08:23:47;;;;;;;5.80;2.83;;;26.50;63.10;;;;;;5053424;28;20246;-84
2021/06/19 08:26:12;;;;;;;5.85;3.10;;;26.60;63.20;;;;;;5053355;28;20221;-84
2021/06/19 08:28:38;;;;;;;4.05;2.75;;;26.70;63.50;;;;;;5053310;28;20180;-84
2021/06/19 08:31:04;;;;;;;7.03;3.10;;;26.80;62.10;;;;;;5035426;28;20192;-85
2021/06/19 08:33:31;;;;;;;3.45;2.42;;;27.00;64.30;;;;;;5053295;28;20551;-84
2021/06/19 08:35:57;;;;;;;4.32;2.97;;;27.20;61.50;;;;;;5035564;28;20176;-85
2021/06/19 08:38:23;;;;;;;7.13;2.85;;;27.00;63.10;;;;;;5035283;28;20267;-84
2021/06/19 08:40:49;;;;;;;7.95;2.78;;;27.10;62.90;;;;;;5053187;28;20656;-84
2021/06/19 08:43:16;;;;;;;5.70;2.92;;;26.60;62.70;;;;;;5035246;28;20261;-84
2021/06/19 08:45:43;;;;;;;7.75;2.58;;;26.30;63.80;;;;;;5053867;28;20172;-84
2021/06/19 08:48:08;;;;;;;3.63;2.45;;;26.00;63.70;;;;;;5034656;28;20172;-85
2021/06/19 08:50:37;;;;;;;7.57;2.90;;;25.80;63.40;;;;;;5053222;28;20203;-84
2021/06/19 08:53:02;;;;;;;6.53;2.10;;;25.90;63.20;;;;;;5053034;28;20203;-84
2021/06/19 08:55:28;;;;;;;3.90;2.38;;;25.80;62.70;;;;;;5053011;28;20588;-84
2021/06/19 08:57:54;;;;;;;2.95;2.50;;;26.10;64.30;;;;;;5035200;28;20180;-85
2021/06/19 09:00:21;;;;;;;5.45;2.40;;;26.00;64.80;;;;;;5035144;28;20199;-84
2021/06/19 09:02:48;;;;;;;5.63;2.30;;;25.90;63.40;;;;;;5035390;28;20204;-85
2021/06/19 09:05:16;;;;;;;3.88;2.00;;;25.80;62.70;;;;;;5053185;28;20217;-84
2021/06/19 09:07:41;;;;;;;2.47;2.17;;;25.80;62.00;;;;;;5035309;28;20725;-84
2021/06/19 09:10:17;;;;;;;5.25;2.10;;;25.70;63.00;;;;;;5052881;28;20171;-84
2021/06/19 09:13:02;;;;;;;3.50;2.17;;;25.70;63.80;;;;;;5053215;28;20167;-83
2021/06/19 09:15:37;;;;;;;8.30;2.53;;;26.10;62.90;;;;;;5052791;28;20180;-84
2021/06/19 09:18:12;;;;;;;3.50;2.08;;;26.40;62.10;;;;;;5034944;28;20170;-84
2021/06/19 09:20:41;;;;;;;2.45;1.88;;;26.50;60.30;;;;;;5053226;28;20207;-84
2021/06/19 09:23:10;;;;;;;4.85;2.20;;;26.30;62.60;;;;;;5053060;28;20192;-84
2021/06/19 09:25:38;;;;;;;2.25;1.70;;;26.00;61.00;;;;;;5052992;28;20217;-85
2021/06/19 09:28:08;;;;;;;2.40;1.88;;;26.00;60.80;;;;;;5034876;28;20598;-85
2021/06/19 09:30:35;;;;;;;3.75;1.77;;;26.20;60.40;;;;;;5034913;28;20250;-84
2021/06/19 09:33:05;;;;;;;3.63;2.10;;;26.00;59.50;;;;;;5052707;28;20668;-84
2021/06/19 09:35:38;;;;;;;6.75;2.20;;;26.20;61.20;;;;;;5034905;28;20230;-84
2021/06/19 09:38:09;;;;;;;5.75;2.22;;;25.70;60.50;;;;;;5052640;28;20242;-85
2021/06/19 09:40:43;;;;;;;5.20;1.75;;;25.80;60.60;;;;;;5052657;28;20735;-84
2021/06/19 09:43:29;;;;;;;3.45;2.28;;;26.10;59.00;;;;;;5052477;28;20210;-85
2021/06/19 09:46:02;;;;;;;1.83;1.73;;;25.80;57.90;;;;;;5035718;28;20176;-84
2021/06/19 09:48:33;;;;;;;6.90;2.25;;;25.40;61.00;;;;;;5034574;28;20176;-84
2021/06/19 09:51:24;;;;;;;3.08;2.10;;;25.80;61.10;;;;;;5034561;28;20199;-84
2021/06/19 09:54:02;;;;;;;4.05;2.03;;;26.20;61.10;;;;;;5034711;28;20196;-84
2021/06/19 09:56:28;;;;;;;3.47;2.20;;;26.20;61.00;;;;;;5034693;28;20688;-84
2021/06/19 09:58:57;;;;;;;8.13;2.00;;;26.10;61.70;;;;;;5053205;28;20211;-84
2021/06/19 10:01:33;;;;;;;2.22;1.90;;;26.20;62.50;;;;;;5056012;28;20211;-84
2021/06/19 10:03:59;;;;;;;6.97;2.00;;;26.20;62.10;;;;;;5056130;28;20190;-85
2021/06/19 10:06:26;;;;;;;2.70;1.90;;;26.30;62.20;;;;;;5056015;28;20215;-84
2021/06/19 10:08:53;;;;;;;3.53;2.25;;;26.20;58.90;;;;;;5037884;28;20664;-84
2021/06/19 10:11:21;;;;;;;2.17;1.77;;;26.40;59.80;;;;;;5038088;28;20580;-84
2021/06/19 10:13:47;;;;;;;3.30;1.60;;;26.20;58.50;;;;;;5038009;28;20176;-84
2021/06/19 10:16:15;;;;;;;4.63;1.70;;;25.90;60.40;;;;;;5055752;28;20180;-84
2021/06/19 10:18:42;;;;;;;5.68;2.50;;;25.70;58.60;;;;;;5037912;28;20529;-85
2021/06/19 10:21:09;;;;;;;4.97;1.80;;;25.90;61.20;;;;;;5055536;28;20192;-84
2021/06/19 10:23:35;;;;;;;3.55;2.00;;;26.20;61.40;;;;;;5055453;28;20204;-83
2021/06/19 10:26:01;;;;;;;2.28;1.73;;;26.50;60.30;;;;;;5037759;28;20179;-84
2021/06/19 10:28:30;;;;;;;4.70;2.25;;;26.90;59.10;;;;;;5055485;28;20164;-84
2021/06/19 10:30:57;;;;;;;2.88;1.60;;;26.90;57.60;;;;;;5055386;28;20195;-85
2021/06/19 10:33:32;;;;;;;4.88;2.10;;;27.00;56.90;;;;;;5037627;28;20180;-84
2021/06/19 10:36:03;;;;;;;1.90;1.50;;;27.20;55.50;;;;;;5037503;28;20188;-84
2021/06/19 10:38:45;;;;;;;4.53;1.83;;;27.40;55.10;;;;;;5055786;28;20517;-84
2021/06/19 10:41:10;;;;;;;9.27;1.98;;;27.50;54.40;;;;;;5037333;28;20282;-85
2021/06/19 10:43:46;;;;;;;6.40;2.33;;;27.50;54.70;;;;;;5037322;28;20314;-84
2021/06/19 10:46:30;;;;;;;3.33;1.92;;;27.50;54.90;;;;;;5055305;28;20581;-84
2021/06/19 10:48:55;;;;;;;3.88;1.98;;;27.50;58.00;;;;;;5037459;28;20182;-85
2021/06/19 10:51:23;;;;;;;1.80;1.67;;;27.50;55.50;;;;;;5055037;28;20571;-84
2021/06/19 10:54:10;;;;;;;7.07;1.70;;;27.20;57.10;;;;;;5055069;28;20178;-85
2021/06/19 10:56:53;;;;;;;2.75;1.90;;;26.80;58.00;;;;;;5054967;28;20172;-84
2021/06/19 10:59:26;;;;;;;4.00;1.92;;;26.50;59.00;;;;;;5055006;28;20172;-85
2021/06/19 11:01:57;;;;;;;5.07;2.03;;;26.90;58.90;;;;;;5036817;28;20199;-84
2021/06/19 11:04:41;;;;;;;3.17;1.80;;;27.40;56.80;;;;;;5037122;28;20550;-85
2021/06/19 11:07:50;;;;;;;2.75;1.80;;;27.20;57.20;;;;;;5055276;28;20153;-85
2021/06/19 11:10:46;;;;;;;3.88;1.80;;;27.40;56.10;;;;;;5027837;28;20595;-85
2021/06/19 11:13:41;;;;;;;4.22;1.90;;;27.70;54.70;;;;;;5028856;28;20240;-85
2021/06/19 11:16:33;;;;;;;3.85;1.88;;;27.90;54.50;;;;;;5021540;28;20187;-85
2021/06/19 11:18:58;;;;;;;3.97;1.70;;;28.10;52.30;;;;;;5038555;28;20274;-85
2021/06/19 11:21:30;;;;;;;2.30;1.77;;;28.40;54.40;;;;;;5037559;28;20242;-85
2021/06/19 11:24:02;;;;;;;1.90;1.77;;;28.10;54.60;;;;;;5055210;28;20191;-85
2021/06/19 11:26:54;;;;;;;1.77;1.60;;;27.70;56.20;;;;;;5020557;28;20202;-84
2021/06/19 11:29:41;;;;;;;3.22;1.50;;;27.90;55.50;;;;;;5036912;28;20191;-85
2021/06/19 11:32:29;;;;;;;2.85;1.90;;;27.90;53.80;;;;;;5054866;28;20215;-84
2021/06/19 11:34:59;;;;;;;1.73;1.60;;;27.90;54.80;;;;;;5036877;28;20172;-84
2021/06/19 11:37:54;;;;;;;2.00;1.70;;;28.20;53.30;;;;;;5054654;28;20172;-84
2021/06/19 11:40:27;;;;;;;3.10;1.83;;;27.80;54.70;;;;;;5054449;28;20660;-85
2021/06/19 11:42:52;;;;;;;3.60;1.95;;;28.40;54.40;;;;;;5036479;28;20286;-84
2021/06/19 11:45:18;;;;;;;2.53;1.63;;;28.20;56.00;;;;;;5036269;28;20198;-84
2021/06/19 11:47:44;;;;;;;3.85;2.30;;;28.60;54.60;;;;;;5036248;28;20234;-84
2021/06/19 11:50:10;;;;;;;4.68;1.70;;;28.90;52.50;;;;;;5054250;28;20590;-84
2021/06/19 11:52:35;;;;;;;3.58;1.73;;;28.80;50.90;;;;;;5054108;28;20196;-84
2021/06/19 11:55:01;;;;;;;4.70;1.70;;;29.20;51.60;;;;;;5054459;28;20662;-84
2021/06/19 11:57:30;;;;;;;7.00;1.60;;;28.70;50.70;;;;;;5036154;28;20545;-83
2021/06/19 12:00:09;;;;;;;2.83;1.70;;;28.90;50.70;;;;;;5054146;28;20632;-84
2021/06/19 12:02:35;;;;;;;6.43;1.75;;;29.00;48.60;;;;;;5036092;28;20271;-84
2021/06/19 12:05:15;;;;;;;2.65;1.63;;;29.10;49.50;;;;;;5054129;28;20569;-84
2021/06/19 12:07:41;;;;;;;4.05;1.95;;;29.20;48.50;;;;;;5053841;28;20160;-84
2021/06/19 12:10:28;;;;;;;2.53;1.50;;;28.90;49.80;;;;;;5053644;28;20168;-84
2021/06/19 12:13:07;;;;;;;2.38;1.40;;;29.40;49.60;;;;;;5053878;28;20187;-84
2021/06/19 12:15:34;;;;;;;3.28;1.80;;;29.70;49.20;;;;;;5053717;28;20620;-83
2021/06/19 12:18:01;;;;;;;2.72;1.90;;;29.20;49.10;;;;;;5035806;28;20187;-84
2021/06/19 12:20:27;;;;;;;2.13;1.73;;;28.80;51.00;;;;;;5035720;28;20202;-84
2021/06/19 12:22:53;;;;;;;2.28;1.58;;;28.80;50.60;;;;;;5052651;28;20175;-83
2021/06/19 12:25:33;;;;;;;2.00;1.73;;;29.20;51.20;;;;;;5053545;28;20169;-84
2021/06/19 12:28:03;;;;;;;3.22;2.38;;;29.60;47.90;;;;;;5053720;28;20240;-84
2021/06/19 12:30:31;;;;;;;7.07;1.70;;;30.00;48.50;;;;;;5053585;28;20227;-83
2021/06/19 12:32:57;;;;;;;4.25;2.05;;;29.70;51.20;;;;;;5053209;28;20187;-83
2021/06/19 12:35:24;;;;;;;4.28;2.22;;;29.10;51.70;;;;;;5053274;28;20635;-83
2021/06/19 12:37:59;;;;;;;1.80;1.60;;;28.90;47.80;;;;;;5053392;28;20640;-84
2021/06/19 12:40:32;;;;;;;4.57;1.88;;;29.30;49.70;;;;;;5053176;28;20196;-83
2021/06/19 12:42:58;;;;;;;2.20;1.40;;;29.70;48.80;;;;;;5035489;28;20204;-83